Time;durP1;ratioP1;P1;durP2;ratioP2;P2;SDS_P1;SDS_P2;PMS_P1;PMS_P2;Temp;Humidity;BMP_temperature;BMP_pressure;BME280_temperature;BME280_humidity;BME280_pressure;Samples;Min_cycle;Max_cycle;Signal;HPM_P1;HPM_P2
2024/03/24 00:01:28;;;;;;;1.17;0.73;;;13.10;99.90;;;;;;4951708;29;20105;-75
2024/03/24 00:03:54;;;;;;;0.77;0.77;;;13.10;99.90;;;;;;4933142;29;20027;-74
2024/03/24 00:06:19;;;;;;;0.65;0.65;;;13.10;99.90;;;;;;4950901;29;20027;-74
2024/03/24 00:08:45;;;;;;;2.05;0.98;;;13.10;99.90;;;;;;4933865;29;20248;-74
2024/03/24 00:11:10;;;;;;;0.95;0.90;;;13.10;99.90;;;;;;4952013;29;20050;-74
2024/03/24 00:13:36;;;;;;;0.85;0.70;;;13.20;99.90;;;;;;4954791;29;20055;-74
2024/03/24 00:16:03;;;;;;;0.95;0.88;;;13.20;99.90;;;;;;4954969;29;20031;-75
2024/03/24 00:18:28;;;;;;;1.10;1.00;;;13.20;99.90;;;;;;4937688;29;20031;-75
2024/03/24 00:20:54;;;;;;;0.88;0.85;;;13.10;99.90;;;;;;4956768;29;20046;-75
2024/03/24 00:23:20;;;;;;;1.02;0.70;;;13.00;99.90;;;;;;4956339;29;20049;-75
2024/03/24 00:25:49;;;;;;;2.22;0.82;;;13.00;99.90;;;;;;4956515;29;20505;-75
2024/03/24 00:28:15;;;;;;;0.60;0.60;;;13.00;99.90;;;;;;4955241;29;20059;-75
2024/03/24 00:30:40;;;;;;;1.02;0.55;;;13.00;99.90;;;;;;4956464;29;20133;-74
2024/03/24 00:33:07;;;;;;;0.70;0.60;;;12.90;99.90;;;;;;4956477;29;20023;-75
2024/03/24 00:35:33;;;;;;;1.98;0.77;;;12.90;99.90;;;;;;4956152;29;20145;-75
2024/03/24 00:37:58;;;;;;;1.27;0.68;;;12.80;99.90;;;;;;4956340;29;20113;-74
2024/03/24 00:40:24;;;;;;;0.60;0.60;;;12.90;99.90;;;;;;4939017;29;20027;-75
2024/03/24 00:42:51;;;;;;;0.63;0.52;;;12.90;99.90;;;;;;4938452;29;20108;-75
2024/03/24 00:45:16;;;;;;;1.13;0.60;;;12.90;99.90;;;;;;4928791;29;20127;-75
2024/03/24 00:47:42;;;;;;;2.08;0.60;;;12.90;99.90;;;;;;4950031;29;20051;-75
2024/03/24 00:50:09;;;;;;;3.13;0.60;;;12.90;99.90;;;;;;4956209;29;20067;-75
2024/03/24 00:52:35;;;;;;;1.02;0.50;;;12.80;99.90;;;;;;4938742;29;20224;-75
2024/03/24 00:55:01;;;;;;;0.50;0.50;;;12.80;99.90;;;;;;4955967;29;20372;-75
2024/03/24 00:57:27;;;;;;;1.63;0.50;;;12.80;99.90;;;;;;4956045;29;20246;-75
2024/03/24 00:59:52;;;;;;;0.60;0.60;;;12.80;99.90;;;;;;4953645;29;20031;-75
2024/03/24 01:02:18;;;;;;;0.70;0.70;;;12.80;99.90;;;;;;4938004;29;20109;-74
2024/03/24 01:04:44;;;;;;;0.65;0.57;;;12.80;99.90;;;;;;4945605;28;20119;-74
2024/03/24 01:07:10;;;;;;;0.57;0.57;;;12.80;99.90;;;;;;4951675;29;20078;-74
2024/03/24 01:09:35;;;;;;;0.50;0.50;;;12.80;99.90;;;;;;4949350;29;20098;-74
2024/03/24 01:12:01;;;;;;;4.95;0.50;;;12.90;99.90;;;;;;4929305;29;20031;-75
2024/03/24 01:14:28;;;;;;;0.73;0.40;;;12.90;99.90;;;;;;4932910;29;20028;-75
2024/03/24 01:16:54;;;;;;;2.60;0.70;;;12.90;99.90;;;;;;4953179;29;20510;-75
2024/03/24 01:19:23;;;;;;;0.70;0.70;;;12.90;99.90;;;;;;4938391;29;20401;-75
2024/03/24 01:21:49;;;;;;;1.10;0.75;;;12.90;99.90;;;;;;4955534;29;20106;-75
2024/03/24 01:24:14;;;;;;;0.68;0.57;;;12.90;99.90;;;;;;4954991;29;20577;-75
2024/03/24 01:26:40;;;;;;;0.50;0.50;;;12.90;99.90;;;;;;4955351;29;20098;-75
2024/03/24 01:29:07;;;;;;;0.75;0.60;;;12.90;99.90;;;;;;4952000;29;20485;-75
2024/03/24 01:31:32;;;;;;;0.93;0.52;;;12.90;99.90;;;;;;4955372;29;20019;-75
2024/03/24 01:33:58;;;;;;;0.60;0.40;;;12.90;99.90;;;;;;4955333;29;20491;-75
2024/03/24 01:36:24;;;;;;;2.05;0.50;;;12.90;99.90;;;;;;4954633;29;20027;-75
2024/03/24 01:38:49;;;;;;;0.82;0.60;;;12.90;99.90;;;;;;4955632;29;20023;-75
2024/03/24 01:41:16;;;;;;;0.60;0.40;;;;;;;;;;4955489;29;20031;-75
2024/03/24 01:43:44;;;;;;;0.50;0.50;;;12.90;99.90;;;;;;4951270;29;20031;-75
2024/03/24 01:46:10;;;;;;;0.40;0.40;;;12.90;99.90;;;;;;4947787;29;20016;-75
2024/03/24 01:48:36;;;;;;;2.28;0.60;;;12.90;99.90;;;;;;4955249;29;20130;-75
2024/03/24 01:51:08;;;;;;;0.52;0.52;;;12.80;99.90;;;;;;4955315;29;20085;-75
2024/03/24 01:53:38;;;;;;;0.40;0.40;;;12.80;99.90;;;;;;4930067;29;20392;-75
2024/03/24 01:56:04;;;;;;;0.68;0.65;;;12.80;99.90;;;;;;4951167;29;20031;-75
2024/03/24 01:58:35;;;;;;;2.47;0.68;;;12.80;99.90;;;;;;4955020;29;20027;-75
2024/03/24 02:01:02;;;;;;;1.55;0.60;;;12.80;99.90;;;;;;4954999;29;20253;-75
2024/03/24 02:03:31;;;;;;;0.50;0.50;;;12.80;99.90;;;;;;4937507;29;20031;-75
2024/03/24 02:05:58;;;;;;;2.20;0.55;;;12.70;99.90;;;;;;4951216;29;20027;-75
2024/03/24 02:08:28;;;;;;;1.77;0.47;;;12.70;99.90;;;;;;4950938;29;20027;-75
2024/03/24 02:10:57;;;;;;;0.50;0.50;;;12.70;99.90;;;;;;4954883;29;20102;-75
2024/03/24 02:13:23;;;;;;;0.80;0.50;;;12.60;99.90;;;;;;4933927;29;20170;-75
2024/03/24 02:15:50;;;;;;;1.05;0.60;;;12.60;99.90;;;;;;4925947;29;20027;-74
2024/03/24 02:18:16;;;;;;;0.88;0.63;;;12.60;99.90;;;;;;4954456;29;20491;-75
2024/03/24 02:20:42;;;;;;;1.30;0.40;;;12.60;99.90;;;;;;4954861;29;20027;-75
2024/03/24 02:23:08;;;;;;;1.10;0.50;;;12.50;99.90;;;;;;4954312;29;20090;-74
2024/03/24 02:25:34;;;;;;;0.85;0.50;;;12.50;99.90;;;;;;4954664;29;20391;-75
2024/03/24 02:28:00;;;;;;;0.82;0.60;;;12.50;99.90;;;;;;4954438;29;20090;-75
2024/03/24 02:30:28;;;;;;;0.40;0.30;;;12.40;99.90;;;;;;4954428;29;20030;-75
2024/03/24 02:32:57;;;;;;;1.50;0.40;;;12.40;99.90;;;;;;4954318;29;20042;-76
2024/03/24 02:35:25;;;;;;;0.32;0.30;;;12.40;99.90;;;;;;4936969;29;20058;-75
2024/03/24 02:37:54;;;;;;;0.45;0.45;;;12.30;99.90;;;;;;4950738;29;20023;-75
2024/03/24 02:40:19;;;;;;;0.40;0.40;;;12.30;99.90;;;;;;4954394;29;20534;-75
2024/03/24 02:42:45;;;;;;;3.25;0.40;;;12.20;99.90;;;;;;4936686;29;20114;-75
2024/03/24 02:45:12;;;;;;;1.67;0.90;;;12.30;99.90;;;;;;4954054;29;20035;-75
2024/03/24 02:47:39;;;;;;;2.25;0.60;;;12.20;99.90;;;;;;4954102;29;20078;-75
2024/03/24 02:50:06;;;;;;;0.90;0.70;;;12.30;99.90;;;;;;4954049;29;20066;-75
2024/03/24 02:52:32;;;;;;;1.58;0.43;;;12.20;99.90;;;;;;4954018;29;20031;-74
2024/03/24 02:54:57;;;;;;;1.15;0.50;;;12.20;99.90;;;;;;4929732;29;20030;-75
2024/03/24 02:57:23;;;;;;;0.68;0.40;;;12.20;99.90;;;;;;4953961;29;20027;-75
2024/03/24 02:59:49;;;;;;;0.40;0.40;;;12.10;99.90;;;;;;4953791;29;20031;-75
2024/03/24 03:02:15;;;;;;;1.85;0.43;;;12.10;99.90;;;;;;4953888;29;20065;-75
2024/03/24 03:04:40;;;;;;;0.90;0.47;;;12.10;99.90;;;;;;4950427;29;20032;-75
2024/03/24 03:07:06;;;;;;;0.45;0.45;;;12.00;99.90;;;;;;4952922;29;20019;-75
2024/03/24 03:09:32;;;;;;;0.68;0.68;;;12.00;99.90;;;;;;4953732;29;20030;-75
2024/03/24 03:11:58;;;;;;;0.52;0.50;;;12.00;99.90;;;;;;4953516;29;20023;-75
2024/03/24 03:14:24;;;;;;;2.58;0.50;;;11.90;99.90;;;;;;4953518;29;20043;-75
2024/03/24 03:16:49;;;;;;;2.53;0.52;;;11.90;99.90;;;;;;4953438;29;20044;-75
2024/03/24 03:19:15;;;;;;;0.63;0.63;;;11.90;99.90;;;;;;4953678;29;20042;-75
2024/03/24 03:21:41;;;;;;;0.50;0.47;;;11.90;99.90;;;;;;4953339;29;20030;-75
2024/03/24 03:24:06;;;;;;;1.25;0.70;;;11.90;99.90;;;;;;4953438;29;20364;-75
2024/03/24 03:26:32;;;;;;;0.47;0.40;;;11.90;99.90;;;;;;4953071;28;20035;-75
2024/03/24 03:28:58;;;;;;;1.55;0.82;;;11.90;99.90;;;;;;4952967;29;20109;-75
2024/03/24 03:31:23;;;;;;;1.05;0.40;;;11.90;99.90;;;;;;4936228;29;20027;-75
2024/03/24 03:33:49;;;;;;;0.55;0.40;;;11.90;99.90;;;;;;4953049;29;20047;-75
2024/03/24 03:36:15;;;;;;;0.98;0.60;;;11.80;99.90;;;;;;4936092;29;20059;-75
2024/03/24 03:38:40;;;;;;;0.80;0.60;;;11.80;99.90;;;;;;4953387;29;20031;-75
2024/03/24 03:41:06;;;;;;;1.42;0.55;;;11.70;99.90;;;;;;4936061;29;20064;-75
2024/03/24 03:43:32;;;;;;;0.50;0.40;;;11.60;99.90;;;;;;4953055;29;20023;-75
2024/03/24 03:45:58;;;;;;;0.40;0.40;;;11.60;99.90;;;;;;4953151;29;20035;-75
2024/03/24 03:48:24;;;;;;;0.40;0.40;;;11.40;99.90;;;;;;4953298;29;20027;-75
2024/03/24 03:50:49;;;;;;;0.70;0.60;;;11.40;99.90;;;;;;4953161;29;20042;-75
2024/03/24 03:53:22;;;;;;;1.00;0.40;;;11.30;99.90;;;;;;4953190;29;20020;-75
2024/03/24 03:55:51;;;;;;;0.45;0.45;;;11.20;99.90;;;;;;4953068;29;20027;-75
2024/03/24 03:58:21;;;;;;;0.82;0.57;;;11.20;99.90;;;;;;4953055;29;20027;-75
2024/03/24 04:00:50;;;;;;;0.55;0.55;;;11.20;99.90;;;;;;4935809;29;20039;-75
2024/03/24 04:03:16;;;;;;;0.60;0.60;;;11.20;99.90;;;;;;4952835;29;20043;-75
2024/03/24 04:05:42;;;;;;;0.43;0.40;;;11.20;99.90;;;;;;4947497;29;20106;-75
2024/03/24 04:08:08;;;;;;;0.40;0.40;;;11.20;99.90;;;;;;4944565;29;20570;-75
2024/03/24 04:10:34;;;;;;;0.52;0.52;;;11.20;99.90;;;;;;4952881;29;20035;-75
2024/03/24 04:13:01;;;;;;;0.70;0.70;;;11.20;99.90;;;;;;4950893;29;20030;-75
2024/03/24 04:15:27;;;;;;;0.75;0.50;;;11.20;99.90;;;;;;4931294;29;20039;-75
2024/03/24 04:17:53;;;;;;;1.10;0.40;;;11.20;99.90;;;;;;4953129;29;20016;-75
2024/03/24 04:20:18;;;;;;;0.70;0.70;;;11.10;99.90;;;;;;4953111;29;20361;-75
2024/03/24 04:22:48;;;;;;;0.60;0.60;;;11.10;99.90;;;;;;4947377;29;20027;-76
2024/03/24 04:25:15;;;;;;;2.13;0.50;;;11.10;99.90;;;;;;4952062;29;20043;-75
2024/03/24 04:27:40;;;;;;;0.50;0.50;;;11.10;99.90;;;;;;4935635;29;20364;-75
2024/03/24 04:30:07;;;;;;;0.85;0.85;;;11.00;99.90;;;;;;4952945;29;20048;-75
2024/03/24 04:32:33;;;;;;;1.15;0.75;;;11.00;99.90;;;;;;4947666;29;20023;-75
2024/03/24 04:35:00;;;;;;;0.50;0.50;;;11.00;99.90;;;;;;4945332;29;20058;-75
2024/03/24 04:37:26;;;;;;;0.80;0.63;;;11.00;99.90;;;;;;4946664;29;20035;-75
2024/03/24 04:39:52;;;;;;;0.77;0.65;;;10.90;99.90;;;;;;4954834;28;20034;-75
2024/03/24 04:42:18;;;;;;;0.65;0.65;;;10.90;99.90;;;;;;4950143;29;20019;-75
2024/03/24 04:44:44;;;;;;;0.60;0.50;;;10.90;99.90;;;;;;4951289;29;20037;-75
2024/03/24 04:47:09;;;;;;;1.02;0.88;;;10.90;99.90;;;;;;4951928;29;20031;-75
2024/03/24 04:49:35;;;;;;;0.50;0.50;;;10.90;99.90;;;;;;4948398;29;20027;-75
2024/03/24 04:52:01;;;;;;;0.63;0.60;;;10.90;99.90;;;;;;4952108;29;20018;-75
2024/03/24 04:54:26;;;;;;;1.00;0.47;;;10.90;99.90;;;;;;4934871;29;20487;-75
2024/03/24 04:56:52;;;;;;;0.80;0.60;;;10.90;99.90;;;;;;4937697;29;20027;-75
2024/03/24 04:59:18;;;;;;;0.60;0.47;;;10.80;99.90;;;;;;4952775;29;20038;-75
2024/03/24 05:01:44;;;;;;;0.70;0.52;;;10.70;99.90;;;;;;4956061;29;20035;-75
2024/03/24 05:04:10;;;;;;;0.40;0.40;;;10.70;99.90;;;;;;4953534;29;20030;-75
2024/03/24 05:06:36;;;;;;;0.75;0.75;;;10.70;99.90;;;;;;4954983;29;20399;-75
2024/03/24 05:09:08;;;;;;;0.93;0.68;;;10.60;99.90;;;;;;4934013;29;20115;-74
2024/03/24 05:11:34;;;;;;;0.60;0.60;;;10.60;99.90;;;;;;4954913;29;20027;-75
2024/03/24 05:14:00;;;;;;;0.47;0.40;;;10.50;99.90;;;;;;4955590;29;20158;-75
2024/03/24 05:16:31;;;;;;;1.08;0.52;;;10.50;99.90;;;;;;4950278;29;20506;-75
2024/03/24 05:19:02;;;;;;;0.85;0.77;;;10.50;99.90;;;;;;4953379;29;20447;-77
2024/03/24 05:21:27;;;;;;;0.52;0.52;;;10.50;99.90;;;;;;4935099;29;20042;-77
2024/03/24 05:23:53;;;;;;;0.60;0.60;;;10.50;99.90;;;;;;4955387;29;20031;-75
2024/03/24 05:26:19;;;;;;;0.70;0.70;;;10.50;99.90;;;;;;4949950;29;20027;-75
2024/03/24 05:28:45;;;;;;;2.92;0.82;;;10.40;99.90;;;;;;4953292;29;20047;-75
2024/03/24 05:31:11;;;;;;;1.58;0.93;;;10.30;99.90;;;;;;4944034;29;20114;-75
2024/03/24 05:33:37;;;;;;;0.90;0.90;;;10.30;99.90;;;;;;4937496;29;20083;-75
2024/03/24 05:36:04;;;;;;;1.13;0.95;;;10.40;99.90;;;;;;4920410;29;20035;-75
2024/03/24 05:38:32;;;;;;;0.98;0.90;;;10.30;99.90;;;;;;4952128;29;20409;-74
2024/03/24 05:41:06;;;;;;;0.80;0.80;;;10.30;99.90;;;;;;4938086;29;20122;-74
2024/03/24 05:43:36;;;;;;;2.97;1.10;;;10.30;99.90;;;;;;4955077;29;20407;-76
2024/03/24 05:46:03;;;;;;;0.90;0.90;;;10.40;99.90;;;;;;4955174;29;20046;-76
2024/03/24 05:48:29;;;;;;;1.02;1.02;;;10.40;99.90;;;;;;4937855;29;20027;-76
2024/03/24 05:51:02;;;;;;;1.45;1.30;;;10.30;99.90;;;;;;4954576;28;20399;-76
2024/03/24 05:53:29;;;;;;;1.55;1.38;;;10.30;99.90;;;;;;4937627;29;20031;-76
2024/03/24 05:55:59;;;;;;;1.52;1.42;;;10.30;99.90;;;;;;4954982;29;20031;-76
2024/03/24 05:58:25;;;;;;;1.67;1.40;;;10.20;99.90;;;;;;4954939;29;20027;-77
2024/03/24 06:00:51;;;;;;;1.70;1.40;;;10.10;99.90;;;;;;4954904;29;20391;-77
2024/03/24 06:03:16;;;;;;;1.33;1.20;;;10.20;99.90;;;;;;4954493;29;20483;-76
2024/03/24 06:05:42;;;;;;;1.95;1.13;;;10.20;99.90;;;;;;4951686;29;20033;-74
2024/03/24 06:08:10;;;;;;;1.25;1.08;;;10.30;99.90;;;;;;4954916;29;20023;-74
2024/03/24 06:10:37;;;;;;;2.05;1.13;;;10.30;99.90;;;;;;4954608;29;20031;-76
2024/03/24 06:13:03;;;;;;;1.30;1.20;;;10.20;99.90;;;;;;4954659;29;20051;-76
2024/03/24 06:15:29;;;;;;;1.50;1.40;;;10.30;99.90;;;;;;4954636;29;20491;-76
2024/03/24 06:17:55;;;;;;;3.53;1.50;;;10.30;99.90;;;;;;4954544;29;20553;-76
2024/03/24 06:20:20;;;;;;;1.60;1.50;;;10.40;99.90;;;;;;4954477;29;20023;-76
2024/03/24 06:22:46;;;;;;;2.47;1.50;;;10.40;99.90;;;;;;4937224;29;20475;-76
2024/03/24 06:25:12;;;;;;;1.40;1.30;;;10.40;99.90;;;;;;4954285;29;20222;-74
2024/03/24 06:27:37;;;;;;;1.70;1.60;;;10.40;99.90;;;;;;4954437;29;20110;-74
2024/03/24 06:30:04;;;;;;;3.05;1.58;;;10.40;99.90;;;;;;4937090;29;20028;-74
2024/03/24 06:32:29;;;;;;;1.95;1.60;;;10.40;99.90;;;;;;4954180;29;20387;-74
2024/03/24 06:34:55;;;;;;;2.67;2.22;;;10.40;99.90;;;;;;4953741;29;20047;-74
2024/03/24 06:37:21;;;;;;;2.20;2.00;;;10.50;99.90;;;;;;4954114;29;20023;-74
2024/03/24 06:39:48;;;;;;;4.00;2.00;;;10.50;99.90;;;;;;4954191;29;20031;-74
2024/03/24 06:42:15;;;;;;;1.90;1.80;;;10.50;99.90;;;;;;4934226;29;20031;-74
2024/03/24 06:44:42;;;;;;;1.88;1.77;;;10.50;99.90;;;;;;4953409;29;20035;-74
2024/03/24 06:47:08;;;;;;;3.85;1.80;;;10.50;99.90;;;;;;4953415;29;20023;-74
2024/03/24 06:49:34;;;;;;;2.45;1.90;;;10.50;99.90;;;;;;4953973;29;20023;-74
2024/03/24 06:52:02;;;;;;;2.00;1.60;;;10.60;99.90;;;;;;4953957;29;20031;-74
2024/03/24 06:54:28;;;;;;;3.13;1.92;;;10.60;99.90;;;;;;4953863;29;20510;-74
2024/03/24 06:56:53;;;;;;;3.42;1.90;;;10.70;99.90;;;;;;4953891;29;20063;-74
2024/03/24 06:59:19;;;;;;;5.68;1.73;;;10.80;99.90;;;;;;4948303;29;20038;-74
2024/03/24 07:01:45;;;;;;;3.90;2.83;;;10.80;99.90;;;;;;4952984;28;20375;-74
2024/03/24 07:04:11;;;;;;;4.00;3.58;;;10.90;99.90;;;;;;4936389;29;20082;-74
2024/03/24 07:06:36;;;;;;;7.75;3.50;;;11.00;99.90;;;;;;4948319;29;20054;-74
2024/03/24 07:09:02;;;;;;;3.38;3.10;;;11.10;1.00;;;;;;4953636;29;20026;-74
2024/03/24 07:11:31;;;;;;;4.95;3.22;;;11.10;1.00;;;;;;4953700;29;20019;-74
2024/03/24 07:13:56;;;;;;;5.43;3.80;;;11.20;1.00;;;;;;4953439;29;20037;-74
2024/03/24 07:16:22;;;;;;;4.30;3.88;;;11.20;1.00;;;;;;4953538;29;20113;-74
2024/03/24 07:18:47;;;;;;;5.07;3.40;;;11.20;1.00;;;;;;4936342;29;20027;-74
2024/03/24 07:21:13;;;;;;;4.15;3.70;;;11.30;1.00;;;;;;4949775;29;20062;-74
2024/03/24 07:23:39;;;;;;;7.35;4.07;;;11.30;1.00;;;;;;4936169;29;20035;-74
2024/03/24 07:26:04;;;;;;;3.67;3.38;;;11.30;1.00;;;;;;4953457;29;20019;-74
2024/03/24 07:28:30;;;;;;;3.40;3.10;;;11.30;1.00;;;;;;4936056;29;20020;-74
2024/03/24 07:30:56;;;;;;;3.35;2.65;;;11.40;1.00;;;;;;4936080;29;20402;-74
2024/03/24 07:33:21;;;;;;;3.50;3.20;;;11.40;1.00;;;;;;4935926;29;20034;-74
2024/03/24 07:35:47;;;;;;;6.45;2.95;;;11.40;1.00;;;;;;4949199;29;20063;-74
2024/03/24 07:38:13;;;;;;;4.43;3.00;;;11.40;9.60;;;;;;4953338;29;20020;-74
2024/03/24 07:40:39;;;;;;;4.43;3.15;;;11.50;13.10;;;;;;4953226;29;20471;-74
2024/03/24 07:43:04;;;;;;;6.05;2.92;;;11.40;48.20;;;;;;4952974;29;20368;-74
2024/03/24 07:45:31;;;;;;;6.40;3.55;;;11.50;99.20;;;;;;4953192;29;20027;-74
2024/03/24 07:47:57;;;;;;;3.72;3.42;;;11.50;99.90;;;;;;4953267;29;20023;-74
2024/03/24 07:50:22;;;;;;;6.43;2.92;;;11.50;99.90;;;;;;4928212;29;20042;-74
2024/03/24 07:52:48;;;;;;;6.75;3.70;;;11.50;99.90;;;;;;4935692;29;20114;-74
2024/03/24 07:55:14;;;;;;;4.72;3.67;;;11.50;99.90;;;;;;4935881;29;20082;-74
2024/03/24 07:57:40;;;;;;;4.45;3.40;;;11.60;99.90;;;;;;4953000;29;20035;-75
2024/03/24 08:00:07;;;;;;;3.60;3.13;;;11.70;99.90;;;;;;4953185;29;20115;-74
2024/03/24 08:02:33;;;;;;;3.40;3.10;;;11.70;99.90;;;;;;4952905;29;20452;-74
2024/03/24 08:04:58;;;;;;;5.10;3.28;;;11.70;99.90;;;;;;4935630;29;20118;-74
2024/03/24 08:07:24;;;;;;;2.95;2.72;;;11.80;99.90;;;;;;4935674;29;20066;-74
2024/03/24 08:09:50;;;;;;;3.45;3.15;;;11.80;99.90;;;;;;4953041;29;20459;-74
2024/03/24 08:12:16;;;;;;;3.80;3.42;;;11.80;99.90;;;;;;4952842;29;20106;-74
2024/03/24 08:14:42;;;;;;;6.15;2.75;;;11.90;1.00;;;;;;4938822;29;20027;-74
2024/03/24 08:17:08;;;;;;;2.90;2.13;;;12.00;99.90;;;;;;4939454;29;20038;-74
2024/03/24 08:19:34;;;;;;;6.80;2.50;;;12.10;99.90;;;;;;4956680;29;20019;-74
2024/03/24 08:22:00;;;;;;;2.25;2.03;;;12.20;99.90;;;;;;4956783;29;20307;-74
2024/03/24 08:24:25;;;;;;;6.30;2.10;;;12.20;99.90;;;;;;4939326;29;20125;-75
2024/03/24 08:26:51;;;;;;;3.05;2.17;;;12.30;99.90;;;;;;4956489;29;20023;-74
2024/03/24 08:29:17;;;;;;;3.42;1.60;;;12.30;99.90;;;;;;4956386;29;20106;-74
2024/03/24 08:31:43;;;;;;;4.90;1.85;;;12.30;99.90;;;;;;4956499;29;20086;-74
2024/03/24 08:34:08;;;;;;;4.68;2.22;;;12.30;99.90;;;;;;4956231;29;20510;-74
2024/03/24 08:36:34;;;;;;;3.75;2.05;;;12.40;99.90;;;;;;4955432;29;20506;-74
2024/03/24 08:39:00;;;;;;;4.18;1.90;;;12.40;99.90;;;;;;4954461;29;20030;-74
2024/03/24 08:41:25;;;;;;;4.47;2.38;;;12.50;99.90;;;;;;4951104;29;20106;-74
2024/03/24 08:43:51;;;;;;;3.05;1.77;;;12.50;99.90;;;;;;4956003;29;20118;-74
2024/03/24 08:46:17;;;;;;;4.78;1.80;;;12.60;99.90;;;;;;4952651;29;20035;-75
2024/03/24 08:48:43;;;;;;;3.22;1.83;;;12.60;89.40;;;;;;4956259;29;20015;-75
2024/03/24 08:51:09;;;;;;;6.15;3.15;;;12.50;7.90;;;;;;4938925;29;20023;-75
2024/03/24 08:53:35;;;;;;;7.57;3.25;;;12.60;99.90;;;;;;4955925;29;20042;-75
2024/03/24 08:56:00;;;;;;;5.10;2.00;;;12.60;99.90;;;;;;4938680;29;20038;-75
2024/03/24 08:58:26;;;;;;;6.72;1.90;;;12.70;99.90;;;;;;4956060;29;20085;-75
2024/03/24 09:00:52;;;;;;;5.00;2.15;;;12.70;99.90;;;;;;4938427;29;20086;-75
2024/03/24 09:03:21;;;;;;;2.95;2.03;;;12.70;99.90;;;;;;4955733;29;20091;-75
2024/03/24 09:05:47;;;;;;;3.58;2.20;;;12.80;99.90;;;;;;4938597;29;20134;-75
2024/03/24 09:08:13;;;;;;;5.55;2.00;;;12.80;99.90;;;;;;4955954;29;20098;-75
2024/03/24 09:10:38;;;;;;;4.03;2.35;;;12.90;48.50;;;;;;4952758;29;20016;-75
2024/03/24 09:13:04;;;;;;;3.10;2.17;;;12.90;28.50;;;;;;4955996;29;20509;-75
2024/03/24 09:15:31;;;;;;;5.97;2.15;;;12.90;30.30;;;;;;4948932;29;20574;-75
2024/03/24 09:17:57;;;;;;;7.05;2.50;;;12.90;99.90;;;;;;4927836;29;20491;-75
2024/03/24 09:20:22;;;;;;;4.93;2.33;;;13.00;14.60;;;;;;4954193;29;20038;-75
2024/03/24 09:22:48;;;;;;;2.80;2.20;;;12.90;1.00;;;;;;4949394;29;20030;-74
2024/03/24 09:25:14;;;;;;;6.95;3.05;;;12.90;1.00;;;;;;4934645;29;20028;-74
2024/03/24 09:27:40;;;;;;;77.60;33.38;;;13.00;99.90;;;;;;4952251;29;20484;-74
2024/03/24 09:30:06;;;;;;;4.88;3.72;;;13.10;99.90;;;;;;4948407;29;20045;-74
2024/03/24 09:32:32;;;;;;;4.20;2.53;;;13.20;1.00;;;;;;4934204;29;20024;-74
2024/03/24 09:34:58;;;;;;;2.65;2.25;;;13.10;99.90;;;;;;4950208;29;20056;-74
2024/03/24 09:37:24;;;;;;;3.67;2.17;;;13.10;99.90;;;;;;4939160;29;20054;-74
2024/03/24 09:39:50;;;;;;;2.70;2.03;;;13.10;99.90;;;;;;4953209;29;20035;-74
2024/03/24 09:42:19;;;;;;;5.20;4.70;;;13.20;99.90;;;;;;4954021;29;20487;-74
2024/03/24 09:44:46;;;;;;;5.95;5.45;;;13.30;99.90;;;;;;4944558;29;20043;-74
2024/03/24 09:47:12;;;;;;;9.50;4.47;;;13.30;99.90;;;;;;4947308;29;20423;-74
2024/03/24 09:49:40;;;;;;;5.50;3.78;;;13.40;99.90;;;;;;4919997;29;20028;-75
2024/03/24 09:52:12;;;;;;;2.00;1.90;;;13.40;99.90;;;;;;4946203;29;20030;-75
2024/03/24 09:54:37;;;;;;;16.83;13.30;;;13.50;57.00;;;;;;4931178;29;20122;-75
2024/03/24 09:57:03;;;;;;;39.50;30.85;;;13.50;99.90;;;;;;4945424;29;20496;-75
2024/03/24 09:59:32;;;;;;;26.67;20.02;;;13.50;91.40;;;;;;4948281;29;20031;-75
2024/03/24 10:01:58;;;;;;;8.30;7.57;;;13.60;99.90;;;;;;4942440;29;20039;-75
2024/03/24 10:04:24;;;;;;;27.73;22.15;;;13.70;87.20;;;;;;4927999;29;20042;-75
2024/03/24 10:06:50;;;;;;;9.38;7.78;;;13.70;34.00;;;;;;4951517;29;20035;-75
2024/03/24 10:09:16;;;;;;;23.42;17.23;;;13.70;99.90;;;;;;4943763;29;20106;-74
2024/03/24 10:11:41;;;;;;;13.43;8.27;;;13.90;96.50;;;;;;4930035;29;20020;-74
2024/03/24 10:14:07;;;;;;;10.48;5.75;;;13.90;2.60;;;;;;4926334;29;20039;-74
2024/03/24 10:16:33;;;;;;;2.13;2.03;;;13.80;19.90;;;;;;4932686;29;20023;-74
2024/03/24 10:19:12;;;;;;;2.05;1.92;;;13.90;98.30;;;;;;4951434;29;20110;-74
2024/03/24 10:21:39;;;;;;;1.83;1.63;;;14.10;38.40;;;;;;4947023;29;20518;-74
2024/03/24 10:24:06;;;;;;;6.47;5.57;;;14.10;1.00;;;;;;4954160;29;20027;-74
2024/03/24 10:26:36;;;;;;;15.18;11.93;;;14.10;1.00;;;;;;4927567;29;20027;-74
2024/03/24 10:29:05;;;;;;;19.83;11.85;;;14.20;1.00;;;;;;4947971;29;20023;-75
2024/03/24 10:31:37;;;;;;;41.67;27.73;;;14.30;1.00;;;;;;4945492;29;20039;-74
2024/03/24 10:34:03;;;;;;;3.05;2.85;;;14.40;1.00;;;;;;4943715;29;20043;-75
2024/03/24 10:36:37;;;;;;;3.83;3.53;;;14.40;1.00;;;;;;4930630;29;20383;-75
2024/03/24 10:39:09;;;;;;;46.20;32.17;;;14.40;1.00;;;;;;4949806;29;20019;-75
2024/03/24 10:41:35;;;;;;;4.05;2.35;;;14.30;1.00;;;;;;4950111;29;20517;-75
2024/03/24 10:44:02;;;;;;;1.73;1.60;;;14.10;1.00;;;;;;4943787;29;20031;-75
2024/03/24 10:46:31;;;;;;;70.70;46.95;;;14.10;1.00;;;;;;4950153;29;20483;-75
2024/03/24 10:48:58;;;;;;;14.68;9.90;;;14.20;1.00;;;;;;4950722;29;20019;-75
2024/03/24 10:51:30;;;;;;;41.08;29.60;;;14.30;1.00;;;;;;4934005;29;20027;-75
2024/03/24 10:54:02;;;;;;;33.58;26.67;;;14.50;1.00;;;;;;4930694;29;20024;-75
2024/03/24 10:56:32;;;;;;;34.65;25.42;;;14.70;1.00;;;;;;4949254;29;20024;-75
2024/03/24 10:59:04;;;;;;;28.88;21.60;;;14.80;1.00;;;;;;4950762;29;20111;-75
2024/03/24 11:01:30;;;;;;;25.83;18.17;;;14.90;1.00;;;;;;4952127;29;20513;-75
2024/03/24 11:04:01;;;;;;;4.78;4.38;;;14.70;1.00;;;;;;4951727;29;20027;-75
2024/03/24 11:06:27;;;;;;;3.70;2.65;;;14.80;1.00;;;;;;4942336;29;20032;-74
2024/03/24 11:08:53;;;;;;;7.05;5.45;;;14.90;1.00;;;;;;4951605;29;20023;-75
2024/03/24 11:11:20;;;;;;;10.32;7.97;;;15.10;1.00;;;;;;4952473;29;20032;-74
2024/03/24 11:13:46;;;;;;;5.10;3.80;;;15.30;1.00;;;;;;4953571;29;20535;-75
2024/03/24 11:16:13;;;;;;;2.30;1.70;;;15.50;1.00;;;;;;4935592;29;20062;-74
2024/03/24 11:18:39;;;;;;;5.38;3.17;;;15.40;1.00;;;;;;4952586;29;20027;-74
2024/03/24 11:21:08;;;;;;;13.57;9.23;;;15.60;1.00;;;;;;4952496;29;20475;-74
2024/03/24 11:23:38;;;;;;;24.45;11.88;;;15.80;1.00;;;;;;4946279;29;20059;-74
2024/03/24 11:26:13;;;;;;;68.18;42.65;;;15.90;1.00;;;;;;4949608;29;20027;-74
2024/03/24 11:28:43;;;;;;;43.65;24.80;;;16.10;1.00;;;;;;4954389;29;20027;-75
2024/03/24 11:31:20;;;;;;;6.65;6.03;;;16.10;1.00;;;;;;4937578;29;20070;-74
2024/03/24 11:33:58;;;;;;;3.70;3.30;;;16.20;1.00;;;;;;4954308;29;20035;-75
2024/03/24 11:36:24;;;;;;;3.75;2.70;;;16.20;99.90;;;;;;4941424;29;20035;-75
2024/03/24 11:38:53;;;;;;;5.65;3.67;;;16.20;1.00;;;;;;4953152;29;20035;-75
2024/03/24 11:41:19;;;;;;;4.32;3.30;;;16.40;1.00;;;;;;4953297;29;20106;-75
2024/03/24 11:43:59;;;;;;;1.98;1.35;;;16.50;99.90;;;;;;4953221;29;20027;-75
2024/03/24 11:46:32;;;;;;;2.22;1.95;;;16.60;99.90;;;;;;4953232;29;20098;-75
2024/03/24 11:49:00;;;;;;;2.22;2.13;;;16.70;1.00;;;;;;4952595;28;20035;-75
2024/03/24 11:51:26;;;;;;;2.10;2.00;;;16.80;99.90;;;;;;4953090;29;20034;-75
2024/03/24 11:53:56;;;;;;;3.08;2.88;;;16.90;99.90;;;;;;4953142;29;20081;-75
2024/03/24 11:56:23;;;;;;;4.10;3.63;;;16.80;99.90;;;;;;4952983;29;20501;-74
2024/03/24 11:58:53;;;;;;;8.13;5.68;;;17.00;99.90;;;;;;4953125;29;20027;-75
2024/03/24 12:01:24;;;;;;;3.65;3.20;;;17.10;99.90;;;;;;4953142;29;20448;-75
2024/03/24 12:03:50;;;;;;;18.38;12.75;;;17.10;99.90;;;;;;4953004;29;20107;-75
2024/03/24 12:06:17;;;;;;;7.10;4.05;;;17.00;99.90;;;;;;4934773;29;20028;-75
2024/03/24 12:08:45;;;;;;;4.65;3.42;;;16.80;99.90;;;;;;4952937;29;20033;-75
2024/03/24 12:11:14;;;;;;;12.80;7.85;;;16.70;99.90;;;;;;4953027;29;20041;-75
2024/03/24 12:13:40;;;;;;;4.63;4.25;;;16.90;99.90;;;;;;4952759;29;20015;-74
2024/03/24 12:16:06;;;;;;;13.90;9.10;;;17.20;99.90;;;;;;4935679;29;20090;-74
2024/03/24 12:18:32;;;;;;;5.10;4.13;;;17.20;99.90;;;;;;4952786;29;20047;-75
2024/03/24 12:21:02;;;;;;;4.28;3.33;;;17.30;99.90;;;;;;4952994;29;20059;-74
2024/03/24 12:23:29;;;;;;;3.78;2.22;;;17.10;99.90;;;;;;4952587;29;20027;-74
2024/03/24 12:25:55;;;;;;;4.30;2.17;;;16.90;99.90;;;;;;4952948;29;20026;-74
2024/03/24 12:28:21;;;;;;;9.13;5.28;;;16.60;99.90;;;;;;4952786;29;20050;-74
2024/03/24 12:30:52;;;;;;;4.03;2.60;;;16.50;99.90;;;;;;4952890;29;20110;-75
2024/03/24 12:33:19;;;;;;;3.42;2.08;;;16.40;99.90;;;;;;4952848;29;20074;-75
2024/03/24 12:35:45;;;;;;;3.88;2.58;;;16.30;99.90;;;;;;4933089;29;20051;-75
2024/03/24 12:38:12;;;;;;;9.10;2.65;;;16.10;99.90;;;;;;4952644;29;20444;-75
2024/03/24 12:40:38;;;;;;;4.93;1.77;;;16.10;99.90;;;;;;4935520;29;20491;-75
2024/03/24 12:43:12;;;;;;;2.22;2.03;;;16.10;99.90;;;;;;4952438;29;20051;-74
2024/03/24 12:45:56;;;;;;;9.35;7.75;;;16.00;1.00;;;;;;4952591;29;20042;-74